Time;durP1;ratioP1;P1;durP2;ratioP2;P2;SDS_P1;SDS_P2;PMS_P1;PMS_P2;Temp;Humidity;BMP_temperature;BMP_pressure;BME280_temperature;BME280_humidity;BME280_pressure;Samples;Min_cycle;Max_cycle;Signal;HPM_P1;HPM_P2
2024/02/19 14:19:04;;;;;;;127.03;99.97;;;;;;;;;;10021134;27;20415;-96
2024/02/19 14:26:59;;;;;;;135.45;96.85;;;;;;;;;;10040805;27;116178;-86
2024/02/19 14:31:57;;;;;;;115.55;92.78;;;;;;;;;;10087209;28;20080;-77
2024/02/19 14:36:52;;;;;;;123.38;89.50;;;;;;;;;;10095097;28;20041;-79
2024/02/19 14:45:31;;;;;;;113.57;83.40;;;;;;;;;;10140158;27;2188337;-78
2024/02/19 14:50:25;;;;;;;107.63;78.68;;;;;;;;;;10166964;28;20036;-74
2024/02/19 14:55:19;;;;;;;89.43;68.03;;;;;;;;;;10176232;28;20064;-76
2024/02/19 15:00:24;;;;;;;104.97;74.47;;;;;;;;;;10156150;28;20439;-75
2024/02/19 15:05:29;;;;;;;95.85;74.03;;;;;;;;;;10159372;28;20056;-75
2024/02/19 15:10:26;;;;;;;101.30;72.18;;;;;;;;;;10150413;28;20077;-76
2024/02/19 15:15:23;;;;;;;87.10;63.63;;;;;;;;;;10165885;28;20519;-75
2024/02/19 15:20:18;;;;;;;99.00;69.55;;;;;;;;;;10151172;28;20139;-75
2024/02/19 15:25:12;;;;;;;88.80;64.60;;;;;;;;;;10150908;28;20511;-76
2024/02/19 15:30:09;;;;;;;100.85;68.47;;;;;;;;;;10147099;28;20055;-75
2024/02/19 15:35:04;;;;;;;99.20;72.28;;;;;;;;;;10162267;28;20106;-76
2024/02/19 15:39:59;;;;;;;89.50;70.35;;;;;;;;;;10147650;28;20141;-75
2024/02/19 15:44:56;;;;;;;90.13;70.18;;;;;;;;;;10147735;28;20060;-77
2024/02/19 15:49:51;;;;;;;90.47;69.35;;;;;;;;;;10147758;28;20044;-76
2024/02/19 15:54:50;;;;;;;92.78;69.00;;;;;;;;;;10121019;28;20063;-76
2024/02/19 15:59:45;;;;;;;92.90;66.93;;;;;;;;;;10111685;28;20041;-76
2024/02/19 16:04:38;;;;;;;90.47;67.32;;;;;;;;;;10111249;28;20049;-75
2024/02/19 16:09:36;;;;;;;86.55;67.45;;;;;;;;;;10127683;28;20068;-75
2024/02/19 16:14:30;;;;;;;89.88;67.55;;;;;;;;;;10114750;28;20483;-77
2024/02/19 16:19:24;;;;;;;85.38;65.43;;;;;;;;;;10115465;28;20128;-76
2024/02/19 16:24:18;;;;;;;96.15;70.38;;;;;;;;;;10121266;28;20067;-77
2024/02/19 16:29:13;;;;;;;116.70;80.28;;;;;;;;;;10127307;28;20144;-75
2024/02/19 16:34:07;;;;;;;96.88;70.85;;;;;;;;;;10132901;28;20054;-77
2024/02/19 16:39:01;;;;;;;80.35;63.60;;;;;;;;;;10128584;28;20061;-75
2024/02/19 16:43:55;;;;;;;86.70;64.78;;;;;;;;;;10123504;28;20365;-76
2024/02/19 16:48:50;;;;;;;84.20;64.13;;;;;;;;;;10121779;28;20059;-75
2024/02/19 16:53:49;;;;;;;89.50;68.00;;;;;;;;;;10128787;28;20099;-76
2024/02/19 16:58:49;;;;;;;89.68;64.95;;;;;;;;;;10124645;28;20470;-75
2024/02/19 17:03:43;;;;;;;94.25;68.22;;;;;;;;;;10135450;28;20055;-75
2024/02/19 17:08:40;;;;;;;88.28;64.07;;;;;;;;;;10134498;28;20613;-75
2024/02/19 17:13:36;;;;;;;85.95;65.10;;;;;;;;;;10065427;28;54874;-76
2024/02/19 17:18:29;;;;;;;90.25;63.50;;;;;;;;;;10096938;28;20041;-76
2024/02/19 17:23:25;;;;;;;96.32;68.68;;;;;;;;;;10099472;28;20428;-75
2024/02/19 17:28:22;;;;;;;92.10;66.43;;;;;;;;;;10102758;28;20060;-75
2024/02/19 17:33:16;;;;;;;90.72;64.47;;;;;;;;;;10067653;28;20061;-76
2024/02/19 17:38:11;;;;;;;98.60;68.50;;;;;;;;;;10083269;28;20055;-75
2024/02/19 17:43:04;;;;;;;94.90;69.03;;;;;;;;;;10085279;28;20076;-74
2024/02/19 17:47:59;;;;;;;102.65;76.43;;;;;;;;;;10103440;28;20441;-76
2024/02/19 17:52:53;;;;;;;90.00;67.00;;;;;;;;;;10103488;28;20191;-76
2024/02/19 17:57:47;;;;;;;92.13;68.50;;;;;;;;;;10102390;28;20052;-76
2024/02/19 18:02:41;;;;;;;98.70;73.45;;;;;;;;;;10102670;28;20045;-76
2024/02/19 18:07:35;;;;;;;96.38;70.63;;;;;;;;;;10102713;28;20516;-76
2024/02/19 18:12:29;;;;;;;93.97;69.10;;;;;;;;;;10093237;28;20051;-76
2024/02/19 18:17:23;;;;;;;104.65;73.30;;;;;;;;;;10102044;28;20053;-76
2024/02/19 18:22:18;;;;;;;95.78;69.70;;;;;;;;;;10100612;28;20094;-76
2024/02/19 18:27:12;;;;;;;93.30;69.03;;;;;;;;;;10094832;28;20409;-76
2024/02/19 18:32:07;;;;;;;98.70;73.72;;;;;;;;;;10095146;28;20041;-76
2024/02/19 18:37:00;;;;;;;87.72;63.88;;;;;;;;;;10098255;28;20063;-75
2024/02/19 18:41:54;;;;;;;82.03;61.92;;;;;;;;;;10097943;28;20061;-77
2024/02/19 18:46:48;;;;;;;83.18;61.70;;;;;;;;;;10100386;28;20424;-77
2024/02/19 18:51:43;;;;;;;84.45;63.63;;;;;;;;;;10100428;28;20128;-74
2024/02/19 18:56:37;;;;;;;80.25;61.58;;;;;;;;;;10091038;28;20084;-75
2024/02/19 19:01:32;;;;;;;81.88;61.38;;;;;;;;;;10098981;28;20052;-74
2024/02/19 19:06:28;;;;;;;79.60;62.22;;;;;;;;;;10102214;28;20052;-74
2024/02/19 19:11:24;;;;;;;73.18;56.22;;;;;;;;;;10089092;28;20481;-74
2024/02/19 19:16:19;;;;;;;91.45;69.93;;;;;;;;;;10096630;28;20049;-74
2024/02/19 19:21:13;;;;;;;78.55;61.83;;;;;;;;;;10094078;28;20048;-74
2024/02/19 19:26:07;;;;;;;83.10;62.45;;;;;;;;;;10094795;28;20111;-74
2024/02/19 19:31:01;;;;;;;77.55;59.15;;;;;;;;;;10103300;28;20056;-74
2024/02/19 19:35:57;;;;;;;86.35;64.22;;;;;;;;;;10108796;28;20057;-73
2024/02/19 19:40:56;;;;;;;79.43;60.83;;;;;;;;;;10109610;28;20127;-73
2024/02/19 19:45:51;;;;;;;86.10;63.33;;;;;;;;;;10109301;28;20057;-73
2024/02/19 19:50:49;;;;;;;88.80;66.80;;;;;;;;;;10106385;28;20068;-75
2024/02/19 19:55:43;;;;;;;96.05;72.97;;;;;;;;;;10108155;28;20041;-75
2024/02/19 20:00:37;;;;;;;97.70;71.18;;;;;;;;;;10107464;28;20061;-74
2024/02/19 20:05:30;;;;;;;90.78;71.50;;;;;;;;;;10101830;28;20406;-73
2024/02/19 20:10:25;;;;;;;106.97;76.85;;;;;;;;;;10101230;28;20053;-74
2024/02/19 20:15:19;;;;;;;110.95;83.43;;;;;;;;;;10091570;28;20053;-75
2024/02/19 20:20:13;;;;;;;114.25;91.30;;;;;;;;;;10106756;28;20463;-73
2024/02/19 20:25:09;;;;;;;104.00;79.30;;;;;;;;;;10096420;28;20098;-74
2024/02/19 20:30:08;;;;;;;111.30;85.13;;;;;;;;;;10101437;28;20120;-74
2024/02/19 20:35:02;;;;;;;118.18;84.05;;;;;;;;;;10108703;28;20497;-74
2024/02/19 20:40:00;;;;;;;116.45;86.40;;;;;;;;;;10107837;28;20053;-74
2024/02/19 20:44:55;;;;;;;107.43;79.45;;;;;;;;;;10096219;28;20062;-75
2024/02/19 20:49:49;;;;;;;122.78;92.97;;;;;;;;;;10104236;28;20061;-75
2024/02/19 20:54:44;;;;;;;121.43;90.07;;;;;;;;;;10108079;28;20507;-74
2024/02/19 20:59:38;;;;;;;114.90;81.55;;;;;;;;;;10099103;28;20104;-74
2024/02/19 21:04:34;;;;;;;106.53;80.22;;;;;;;;;;10095574;28;20071;-75
2024/02/19 21:09:29;;;;;;;113.45;81.72;;;;;;;;;;10079459;28;20504;-74
2024/02/19 21:14:23;;;;;;;109.35;81.60;;;;;;;;;;10087755;28;20084;-74
2024/02/19 21:19:19;;;;;;;109.15;82.43;;;;;;;;;;10099098;28;20048;-74
2024/02/19 21:24:13;;;;;;;111.97;82.90;;;;;;;;;;10092847;28;20041;-74
2024/02/19 21:29:07;;;;;;;114.55;87.57;;;;;;;;;;10093255;28;20053;-75
2024/02/19 21:34:00;;;;;;;124.35;88.93;;;;;;;;;;10095629;28;20519;-74
2024/02/19 21:38:55;;;;;;;115.53;83.45;;;;;;;;;;10105708;28;20052;-74
2024/02/19 21:43:49;;;;;;;117.45;87.00;;;;;;;;;;10105645;28;20057;-74
2024/02/19 21:48:43;;;;;;;116.78;84.82;;;;;;;;;;10105730;28;20083;-75
2024/02/19 21:53:38;;;;;;;108.38;80.53;;;;;;;;;;10102728;28;20057;-75
2024/02/19 21:58:32;;;;;;;116.60;87.18;;;;;;;;;;10094960;28;20529;-75
2024/02/19 22:03:27;;;;;;;115.20;81.70;;;;;;;;;;10083660;28;20100;-76
2024/02/19 22:08:21;;;;;;;116.70;84.72;;;;;;;;;;10088308;28;20493;-75
2024/02/19 22:13:14;;;;;;;119.80;86.05;;;;;;;;;;10091021;28;20041;-74
2024/02/19 22:18:08;;;;;;;116.93;83.90;;;;;;;;;;10094789;28;20045;-74
2024/02/19 22:23:03;;;;;;;110.18;81.80;;;;;;;;;;10104818;28;20133;-74
2024/02/19 22:27:59;;;;;;;122.97;85.40;;;;;;;;;;10092730;28;20059;-76
2024/02/19 22:32:54;;;;;;;107.85;78.97;;;;;;;;;;10100754;28;20069;-76
2024/02/19 22:37:48;;;;;;;103.88;80.28;;;;;;;;;;10093325;28;20049;-76
2024/02/19 22:42:42;;;;;;;111.03;82.30;;;;;;;;;;10090814;28;20049;-76
2024/02/19 22:47:39;;;;;;;113.53;79.82;;;;;;;;;;10086652;28;20052;-75
2024/02/19 22:52:36;;;;;;;111.60;87.45;;;;;;;;;;10077590;28;20468;-75
2024/02/19 22:57:36;;;;;;;104.68;78.15;;;;;;;;;;10082633;28;20060;-76
2024/02/19 23:02:30;;;;;;;100.38;76.72;;;;;;;;;;10091846;28;20424;-74
2024/02/19 23:07:25;;;;;;;100.47;74.93;;;;;;;;;;10108571;28;20468;-76
2024/02/19 23:12:19;;;;;;;102.47;75.95;;;;;;;;;;10112775;28;20041;-76
2024/02/19 23:17:14;;;;;;;103.50;74.30;;;;;;;;;;10112253;28;20091;-75
2024/02/19 23:22:07;;;;;;;124.30;91.32;;;;;;;;;;10112249;28;20049;-76
2024/02/19 23:27:01;;;;;;;116.80;86.43;;;;;;;;;;10112097;28;20099;-76
2024/02/19 23:31:56;;;;;;;112.35;82.47;;;;;;;;;;10098944;28;20060;-75
2024/02/19 23:36:50;;;;;;;100.05;73.25;;;;;;;;;;10105067;28;20111;-75
2024/02/19 23:41:44;;;;;;;106.00;74.00;;;;;;;;;;10111441;28;20053;-75
2024/02/19 23:46:38;;;;;;;112.35;78.82;;;;;;;;;;10096986;28;20501;-75
2024/02/19 23:51:32;;;;;;;118.20;86.85;;;;;;;;;;10111311;28;20049;-75
2024/02/19 23:56:26;;;;;;;103.63;77.32;;;;;;;;;;10110290;28;20059;-76
